createdAt,value
2018-12-27T00:02:07.252Z,96023.81
2018-12-27T00:04:36.554Z,96015.00
2018-12-27T00:07:05.881Z,96017.14
2018-12-27T00:09:35.181Z,96015.80
2018-12-27T00:12:04.526Z,96025.92
2018-12-27T00:14:33.857Z,96020.86
2018-12-27T00:17:03.188Z,96015.83
2018-12-27T00:19:32.511Z,96023.81
2018-12-27T00:22:01.837Z,96017.14
2018-12-27T00:24:31.123Z,96018.20
2018-12-27T00:27:00.474Z,96017.66
2018-12-27T00:29:29.843Z,96027.81
2018-12-27T00:31:59.321Z,96027.54
2018-12-27T00:34:28.815Z,96028.62
2018-12-27T00:36:58.298Z,96024.07
2018-12-27T00:39:27.737Z,96027.78
2018-12-27T00:41:57.200Z,96023.50
2018-12-27T00:44:26.691Z,96019.28
2018-12-27T00:46:56.126Z,96014.76
2018-12-27T00:49:25.559Z,96025.39
2018-12-27T00:51:55.025Z,96024.88
2018-12-27T00:54:24.678Z,96026.19
2018-12-27T00:56:54.107Z,96023.53
2018-12-27T00:59:23.574Z,96025.67
2018-12-27T01:01:53.038Z,96025.38
2018-12-27T01:04:22.475Z,96020.61
2018-12-27T01:06:51.951Z,96022.20
2018-12-27T01:09:21.428Z,96019.81
2018-12-27T01:11:50.882Z,96022.48
2018-12-27T01:14:20.351Z,96020.07
2018-12-27T01:16:49.811Z,96023.00
2018-12-27T01:19:19.257Z,96024.05
2018-12-27T01:21:48.773Z,96022.17
2018-12-27T01:24:18.246Z,96024.07
2018-12-27T01:26:47.692Z,96017.16
2018-12-27T01:29:17.244Z,96013.97
2018-12-27T01:31:50.567Z,96016.34
2018-12-27T01:34:17.870Z,96010.77
2018-12-27T01:36:47.351Z,96003.56
2018-12-27T01:39:16.793Z,95997.45
2018-12-27T01:41:46.277Z,95994.52
2018-12-27T01:44:15.718Z,96006.77
2018-12-27T01:46:45.181Z,96000.89
2018-12-27T01:49:14.617Z,95998.78
2018-12-27T01:51:44.176Z,95999.82
2018-12-27T01:54:13.530Z,96001.95
2018-12-27T01:56:42.971Z,96000.62
2018-12-27T01:59:12.478Z,95993.97
2018-12-27T02:01:41.947Z,95986.23
2018-12-27T02:04:11.376Z,95989.16
2018-12-27T02:06:40.919Z,95979.05
2018-12-27T02:09:10.428Z,95975.59
2018-12-27T02:11:39.872Z,95987.33
2018-12-27T02:14:09.328Z,95984.14
2018-12-27T02:16:38.772Z,95980.67
2018-12-27T02:19:08.214Z,95979.34
2018-12-27T02:21:37.670Z,95984.14
2018-12-27T02:24:07.118Z,95968.41
2018-12-27T02:26:36.774Z,95977.20
2018-12-27T02:29:06.234Z,95976.69
2018-12-27T02:31:37.169Z,95979.87
2018-12-27T02:34:06.769Z,95985.18
2018-12-27T02:36:36.215Z,95977.98
2018-12-27T02:39:07.365Z,95972.12
2018-12-27T02:41:36.777Z,95964.41
2018-12-27T02:44:06.276Z,95968.95
2018-12-27T02:46:35.718Z,95959.63
2018-12-27T02:49:05.138Z,95956.45
2018-12-27T02:51:34.614Z,95959.91
2018-12-27T02:54:04.062Z,95951.13
2018-12-27T02:56:33.513Z,95952.20
2018-12-27T02:59:03.006Z,95959.64
2018-12-27T03:01:32.484Z,95957.51
2018-12-27T03:04:01.970Z,95961.20
2018-12-27T03:06:31.457Z,95959.08
2018-12-27T03:09:00.913Z,95952.98
2018-12-27T03:11:30.408Z,95953.51
2018-12-27T03:13:59.849Z,95954.55
2018-12-27T03:16:29.295Z,95962.79
2018-12-27T03:18:58.778Z,95961.98
2018-12-27T03:21:28.247Z,95956.66
2018-12-27T03:23:57.745Z,95958.52
2018-12-27T03:26:27.222Z,95962.27
2018-12-27T03:28:56.670Z,95960.63
2018-12-27T03:31:26.169Z,95965.42
2018-12-27T03:33:55.625Z,95961.19
2018-12-27T03:36:25.106Z,95972.36
2018-12-27T03:38:54.547Z,95972.34
2018-12-27T03:41:23.999Z,95972.60
2018-12-27T03:43:53.446Z,95980.02
2018-12-27T03:46:22.937Z,95980.80
2018-12-27T03:48:52.418Z,95989.30
2018-12-27T03:51:21.873Z,95982.66
2018-12-27T03:53:51.368Z,95990.38
2018-12-27T03:56:20.807Z,95990.89
2018-12-27T03:58:50.245Z,95995.94
2018-12-27T04:01:19.756Z,95984.80
2018-12-27T04:03:49.205Z,96000.50
2018-12-27T04:06:18.675Z,96003.12
2018-12-27T04:08:48.130Z,96002.60
2018-12-27T04:11:17.574Z,96003.95
2018-12-27T04:13:47.023Z,96014.85
2018-12-27T04:16:16.296Z,96020.16
2018-12-27T04:18:45.746Z,96021.48
2018-12-27T04:21:15.024Z,96027.86
2018-12-27T04:23:44.449Z,96032.91
2018-12-27T04:26:14.655Z,96031.31
2018-12-27T04:28:43.979Z,96035.83
2018-12-27T04:31:13.666Z,96040.89
2018-12-27T04:33:43.477Z,96048.58
2018-12-27T04:36:13.324Z,96043.02
2018-12-27T04:38:42.685Z,96047.79
2018-12-27T04:41:11.996Z,96052.55
2018-12-27T04:43:41.492Z,96065.59
2018-12-27T04:46:10.836Z,96054.41
2018-12-27T04:48:40.177Z,96060.51
2018-12-27T04:51:09.497Z,96069.83
2018-12-27T04:53:38.807Z,96059.72
2018-12-27T04:56:08.137Z,96065.29
2018-12-27T04:58:37.503Z,96079.37
2018-12-27T05:01:06.841Z,96066.59
2018-12-27T05:03:36.170Z,96087.34
2018-12-27T05:06:05.474Z,96085.19
2018-12-27T05:08:34.883Z,96079.59
2018-12-27T05:11:04.299Z,96097.14
2018-12-27T05:13:33.629Z,96098.20
2018-12-27T05:16:02.963Z,96105.12
2018-12-27T05:18:32.295Z,96106.44
2018-12-27T05:21:01.599Z,96111.23
2018-12-27T05:23:30.917Z,96107.20
2018-12-27T05:26:00.228Z,96112.28
2018-12-27T05:28:29.524Z,96110.66
2018-12-27T05:30:58.930Z,96117.59
2018-12-27T05:33:28.254Z,96117.58
2018-12-27T05:35:57.636Z,96124.42
2018-12-27T05:38:26.954Z,96133.48
2018-12-27T05:40:56.290Z,96138.25
2018-12-27T05:43:25.647Z,96139.04
2018-12-27T05:45:54.981Z,96147.22
2018-12-27T05:48:24.336Z,96146.70
2018-12-27T05:50:53.710Z,96142.71
2018-12-27T05:53:23.082Z,96150.43
2018-12-27T05:55:52.428Z,96157.88
2018-12-27T05:58:21.737Z,96152.51
2018-12-27T06:00:51.176Z,96156.80
2018-12-27T06:03:20.494Z,96161.29
2018-12-27T06:05:49.793Z,96156.50
2018-12-27T06:08:19.162Z,96162.59
2018-12-27T06:10:48.498Z,95993.78
2018-12-27T06:13:17.840Z,96170.28
2018-12-27T06:15:47.199Z,96167.66
2018-12-27T06:18:16.547Z,95952.77
2018-12-27T06:20:45.898Z,96175.86
2018-12-27T06:23:15.244Z,96177.99
2018-12-27T06:25:44.598Z,96177.70
2018-12-27T06:28:13.908Z,96172.39
2018-12-27T06:30:43.316Z,96177.42
2018-12-27T06:33:12.642Z,96178.52
2018-12-27T06:35:41.946Z,96170.88
2018-12-27T06:38:11.263Z,96164.76
2018-12-27T06:40:40.598Z,96176.98
2018-12-27T06:43:09.956Z,96173.74
2018-12-27T06:45:39.307Z,96182.81
2018-12-27T06:48:08.809Z,96177.55
2018-12-27T06:50:38.164Z,96177.26
2018-12-27T06:53:07.515Z,96180.44
2018-12-27T06:55:36.850Z,96188.70
2018-12-27T06:58:06.195Z,96182.55
2018-12-27T07:00:35.667Z,96187.63
2018-12-27T07:03:04.964Z,96181.45
2018-12-27T07:05:34.247Z,96192.63
2018-12-27T07:08:03.632Z,96191.62
2018-12-27T07:10:32.988Z,96193.20
2018-12-27T07:13:02.331Z,96195.91
2018-12-27T07:15:31.782Z,96193.56
2018-12-27T07:18:01.215Z,96196.44
2018-12-27T07:20:30.524Z,96197.50
2018-12-27T07:22:59.901Z,96204.90
2018-12-27T07:25:29.241Z,96209.77
2018-12-27T07:27:58.575Z,96212.19
2018-12-27T07:30:28.106Z,96210.50
2018-12-27T07:32:57.456Z,96211.10
2018-12-27T07:35:26.898Z,96208.97
2018-12-27T07:37:56.221Z,96215.09
2018-12-27T07:40:25.681Z,96215.14
2018-12-27T07:42:55.039Z,96212.50
2018-12-27T07:45:24.351Z,96210.06
2018-12-27T07:47:53.678Z,96214.36
2018-12-27T07:50:23.089Z,96218.58
2018-12-27T07:52:52.487Z,96212.16
2018-12-27T07:55:23.783Z,96216.47
2018-12-27T07:57:53.064Z,96219.64
2018-12-27T08:00:22.498Z,96210.66
2018-12-27T08:02:52.001Z,96223.16
2018-12-27T08:05:21.341Z,96225.53
2018-12-27T08:07:50.707Z,96223.19
2018-12-27T08:10:20.015Z,96218.68
2018-12-27T08:12:49.418Z,96223.50
2018-12-27T08:15:18.761Z,96225.63
2018-12-27T08:17:48.075Z,96233.06
2018-12-27T08:20:17.427Z,96228.53
2018-12-27T08:22:46.918Z,96240.75
2018-12-27T08:25:17.347Z,96234.16
2018-12-27T08:27:46.647Z,96231.56
2018-12-27T08:30:16.050Z,96232.62
2018-12-27T08:32:45.361Z,96239.47
2018-12-27T08:35:14.737Z,96240.59
2018-12-27T08:37:44.045Z,96242.77
2018-12-27T08:40:13.390Z,96248.63
2018-12-27T08:42:42.734Z,96240.67
2018-12-27T08:45:12.043Z,96235.38
2018-12-27T08:47:41.367Z,96236.22
2018-12-27T08:50:10.665Z,96239.70
2018-12-27T08:52:40.057Z,96243.14
2018-12-27T08:55:09.402Z,96245.03
2018-12-27T08:57:38.733Z,96241.60
2018-12-27T09:00:08.289Z,96241.02
2018-12-27T09:02:37.615Z,95493.77
2018-12-27T09:05:07.597Z,96236.71
2018-12-27T09:07:36.972Z,96231.98
2018-12-27T09:10:06.779Z,96233.33
2018-12-27T09:12:36.256Z,96228.34
2018-12-27T09:15:05.560Z,96231.56
2018-12-27T09:17:35.129Z,96228.21
2018-12-27T09:20:04.885Z,96236.19
2018-12-27T09:22:34.241Z,96226.91
2018-12-27T09:25:04.081Z,96223.16
2018-12-27T09:27:35.418Z,96225.79
2018-12-27T09:30:06.945Z,96225.30
2018-12-27T09:32:36.345Z,96226.33
2018-12-27T09:35:06.093Z,96225.73
2018-12-27T09:37:35.435Z,96230.28
2018-12-27T09:40:04.916Z,96223.61
2018-12-27T09:42:34.417Z,96223.58
2018-12-27T09:45:03.743Z,96218.50
2018-12-27T09:47:32.988Z,96216.95
2018-12-27T09:50:02.374Z,96227.81
2018-12-27T09:52:31.869Z,96214.77
2018-12-27T09:55:01.232Z,96216.16
2018-12-27T09:57:30.592Z,96224.14
2018-12-27T09:59:59.926Z,96219.64
2018-12-27T10:02:29.235Z,96211.92
2018-12-27T10:04:58.699Z,96214.06
2018-12-27T10:07:28.012Z,96214.60
2018-12-27T10:09:57.363Z,96210.07
2018-12-27T10:12:26.792Z,96203.98
2018-12-27T10:14:56.175Z,96200.04
2018-12-27T10:17:25.502Z,96192.33
2018-12-27T10:19:54.844Z,96192.13
2018-12-27T10:22:24.307Z,96190.20
2018-12-27T10:24:53.633Z,96183.02
2018-12-27T10:27:22.957Z,96183.02
2018-12-27T10:29:52.353Z,96184.61
2018-12-27T10:32:22.018Z,96178.75
2018-12-27T10:34:51.381Z,96171.78
2018-12-27T10:37:20.709Z,96172.06
2018-12-27T10:39:53.564Z,96167.01
2018-12-27T10:42:22.950Z,96159.78
2018-12-27T10:44:52.270Z,96161.73
2018-12-27T10:47:21.575Z,96151.68
2018-12-27T10:49:50.966Z,96150.14
2018-12-27T10:52:20.273Z,96147.78
2018-12-27T10:54:49.666Z,96135.55
2018-12-27T10:57:19.161Z,96140.56
2018-12-27T10:59:48.619Z,96137.07
2018-12-27T11:02:17.953Z,96137.07
2018-12-27T11:04:47.297Z,96141.84
2018-12-27T11:07:16.711Z,96138.67
2018-12-27T11:09:46.491Z,96134.92
2018-12-27T11:12:15.967Z,96130.17
2018-12-27T11:14:45.361Z,96127.24
2018-12-27T11:17:14.692Z,96124.57
2018-12-27T11:19:44.012Z,96133.62
2018-12-27T11:22:13.634Z,96129.13
2018-12-27T11:24:42.934Z,96122.46
2018-12-27T11:27:12.358Z,96122.46
2018-12-27T11:29:41.706Z,96124.80
2018-12-27T11:32:11.031Z,96125.09
2018-12-27T11:34:40.512Z,96123.23
2018-12-27T11:37:09.862Z,96134.72
2018-12-27T11:39:39.218Z,96134.72
2018-12-27T11:42:08.579Z,96129.38
2018-12-27T11:44:37.948Z,96132.60
2018-12-27T11:47:07.298Z,96132.60
2018-12-27T11:49:36.610Z,96141.15
2018-12-27T11:52:05.959Z,96137.89
2018-12-27T11:54:35.291Z,96135.53
2018-12-27T11:57:04.660Z,96135.53
2018-12-27T11:59:34.026Z,96136.64
2018-12-27T12:02:03.380Z,96136.10
2018-12-27T12:04:32.745Z,96128.08
2018-12-27T12:07:02.100Z,96131.26
2018-12-27T12:09:31.493Z,96134.99
2018-12-27T12:12:00.925Z,96136.81
2018-12-27T12:14:30.263Z,96142.97
2018-12-27T12:16:59.700Z,96142.97
2018-12-27T12:19:29.085Z,96144.58
2018-12-27T12:21:58.422Z,96151.47
2018-12-27T12:24:27.743Z,96140.03
2018-12-27T12:26:57.084Z,96145.33
2018-12-27T12:29:26.449Z,96143.48
2018-12-27T12:31:55.789Z,96145.84
2018-12-27T12:34:25.220Z,96137.86
2018-12-27T12:36:54.963Z,96140.23
2018-12-27T12:39:24.642Z,96149.86
2018-12-27T12:41:53.977Z,96149.59
2018-12-27T12:44:23.331Z,96140.56
2018-12-27T12:46:53.165Z,96147.26
2018-12-27T12:49:22.560Z,96150.19
2018-12-27T12:51:51.937Z,96160.79
2018-12-27T12:54:21.278Z,96149.03
2018-12-27T12:56:50.642Z,96158.08
2018-12-27T12:59:20.082Z,96153.50
2018-12-27T13:01:49.449Z,96152.41
2018-12-27T13:04:18.817Z,96166.30
2018-12-27T13:06:48.156Z,96170.52
2018-12-27T13:09:17.514Z,96159.89
2018-12-27T13:11:46.882Z,96159.16
2018-12-27T13:14:16.215Z,96156.75
2018-12-27T13:16:45.570Z,96161.00
2018-12-27T13:19:14.921Z,96172.41
2018-12-27T13:21:44.395Z,96165.75
2018-12-27T13:24:13.763Z,96162.81
2018-12-27T13:26:43.120Z,96168.89
2018-12-27T13:29:12.451Z,96162.00
2018-12-27T13:31:41.837Z,96166.00
2018-12-27T13:34:11.297Z,96163.03
2018-12-27T13:36:40.706Z,96167.31
2018-12-27T13:39:10.085Z,96172.36
2018-12-27T13:41:39.452Z,96167.33
2018-12-27T13:44:08.754Z,96166.23
2018-12-27T13:46:38.125Z,96170.98
2018-12-27T13:49:07.605Z,96003.90
2018-12-27T13:51:36.927Z,96166.22
2018-12-27T13:54:06.299Z,96175.26
2018-12-27T13:56:35.607Z,96165.44
2018-12-27T13:59:04.966Z,96171.02
2018-12-27T14:01:34.298Z,96172.34
2018-12-27T14:04:03.650Z,96176.33
2018-12-27T14:06:33.058Z,96169.69
2018-12-27T14:09:02.458Z,96172.88
2018-12-27T14:11:31.816Z,96170.73
2018-12-27T14:14:01.198Z,96166.22
2018-12-27T14:16:30.570Z,96171.80
2018-12-27T14:18:59.910Z,96165.95
2018-12-27T14:21:29.362Z,96167.55
2018-12-27T14:23:58.699Z,96176.29
2018-12-27T14:26:28.047Z,96175.23
2018-12-27T14:28:57.357Z,96172.53
2018-12-27T14:31:26.704Z,96170.41
2018-12-27T14:33:56.062Z,96168.55
2018-12-27T14:36:25.493Z,96176.77
2018-12-27T14:38:54.888Z,96174.11
2018-12-27T14:41:24.243Z,96172.75
2018-12-27T14:43:53.666Z,96177.05
2018-12-27T14:46:23.057Z,96185.55
2018-12-27T14:48:52.382Z,96181.52
2018-12-27T14:51:21.738Z,96184.64
2018-12-27T14:53:51.085Z,96181.19
2018-12-27T14:56:20.428Z,96188.09
2018-12-27T14:58:49.842Z,96188.86
2018-12-27T15:01:19.215Z,96181.19
2018-12-27T15:03:48.523Z,96184.63
2018-12-27T15:06:17.835Z,96184.08
2018-12-27T15:08:47.205Z,96192.57
2018-12-27T15:11:16.542Z,96191.52
2018-12-27T15:13:45.888Z,96191.23
2018-12-27T15:16:15.248Z,96184.06
2018-12-27T15:18:44.615Z,96193.38
2018-12-27T15:21:13.953Z,96189.34
2018-12-27T15:23:43.311Z,96191.45
2018-12-27T15:26:12.648Z,96192.53
2018-12-27T15:28:41.989Z,96195.71
2018-12-27T15:31:11.313Z,96199.97
2018-12-27T15:33:40.640Z,96205.58
2018-12-27T15:36:09.982Z,96202.14
2018-12-27T15:38:39.326Z,96192.78
2018-12-27T15:41:08.726Z,96200.22
2018-12-27T15:43:38.069Z,96203.69
2018-12-27T15:46:07.561Z,96200.78
2018-12-27T15:48:36.948Z,96206.14
2018-12-27T15:51:06.310Z,96204.81
2018-12-27T15:53:35.711Z,96196.31
2018-12-27T15:56:05.083Z,96199.52
2018-12-27T15:58:34.547Z,96199.83
2018-12-27T16:01:03.983Z,96198.45
2018-12-27T16:03:33.473Z,96197.34
2018-12-27T16:06:02.838Z,96199.23
2018-12-27T16:08:32.282Z,96200.58
2018-12-27T16:11:01.662Z,96203.55
2018-12-27T16:13:31.042Z,96207.25
2018-12-27T16:16:00.385Z,96205.92
2018-12-27T16:18:29.783Z,96209.95
2018-12-27T16:20:59.149Z,96216.06
2018-12-27T16:23:31.384Z,96220.31
2018-12-27T16:26:00.743Z,96213.14
2018-12-27T16:28:30.080Z,96217.64
2018-12-27T16:30:59.449Z,96221.09
2018-12-27T16:33:28.826Z,96217.89
2018-12-27T16:35:58.169Z,96217.89
2018-12-27T16:38:27.571Z,96219.18
2018-12-27T16:40:56.922Z,96213.30
2018-12-27T16:43:26.334Z,96220.52
2018-12-27T16:45:55.737Z,96226.66
2018-12-27T16:48:26.906Z,96226.66
2018-12-27T16:50:56.236Z,96223.50
2018-12-27T16:53:25.597Z,96223.80
2018-12-27T16:55:54.973Z,96236.03
2018-12-27T16:58:24.314Z,96225.88
2018-12-27T17:00:53.655Z,96231.17
2018-12-27T17:03:23.064Z,96229.32
2018-12-27T17:05:52.439Z,96230.11
2018-12-27T17:08:21.823Z,96230.66
2018-12-27T17:10:56.171Z,96166.51
2018-12-27T17:13:25.584Z,96229.84
2018-12-27T17:15:54.930Z,96236.52
2018-12-27T17:18:24.537Z,96228.53
2018-12-27T17:20:53.870Z,96232.55
2018-12-27T17:23:23.191Z,96231.73
2018-12-27T17:25:52.551Z,96230.47
2018-12-27T17:28:21.955Z,96229.38
2018-12-27T17:30:51.318Z,96231.00
2018-12-27T17:33:20.641Z,96223.84
2018-12-27T17:35:49.949Z,96223.30
2018-12-27T17:38:19.371Z,96227.83
2018-12-27T17:40:48.690Z,96228.62
2018-12-27T17:43:19.125Z,96228.35
2018-12-27T17:45:48.761Z,96228.70
2018-12-27T17:48:18.126Z,96224.96
2018-12-27T17:50:47.489Z,96227.05
2018-12-27T17:53:16.950Z,96220.67
2018-12-27T17:55:46.697Z,96218.52
2018-12-27T17:58:16.030Z,96221.76
2018-12-27T18:00:45.388Z,96218.50
2018-12-27T18:03:14.717Z,96217.19
2018-12-27T18:05:44.018Z,96228.95
2018-12-27T18:08:13.324Z,96225.77
2018-12-27T18:10:42.689Z,96224.96
2018-12-27T18:13:12.024Z,96221.26
2018-12-27T18:15:41.361Z,96221.76
2018-12-27T18:18:10.733Z,96214.56
2018-12-27T18:20:40.070Z,96220.96
2018-12-27T18:23:09.975Z,96223.61
2018-12-27T18:25:39.326Z,96220.97
2018-12-27T18:28:08.632Z,96220.21
2018-12-27T18:30:37.981Z,96224.72
2018-12-27T18:33:07.332Z,96227.89
2018-12-27T18:35:36.642Z,96223.38
2018-12-27T18:38:05.987Z,96226.31
2018-12-27T18:40:35.295Z,96232.75
2018-12-27T18:43:04.655Z,96232.20
2018-12-27T18:45:34.029Z,96237.72
2018-12-27T18:48:03.430Z,96232.17
2018-12-27T18:50:33.097Z,96236.19
2018-12-27T18:53:02.481Z,96231.15
2018-12-27T18:55:34.539Z,96227.92
2018-12-27T18:58:04.306Z,96222.31
2018-12-27T19:00:33.665Z,96221.80
2018-12-27T19:03:02.976Z,96228.45
2018-12-27T19:05:34.160Z,96224.74
2018-12-27T19:08:03.862Z,96216.74
2018-12-27T19:10:33.170Z,96217.23
2018-12-27T19:13:09.695Z,96218.29
2018-12-27T19:15:45.559Z,96227.12
2018-12-27T19:18:24.947Z,96223.39
2018-12-27T19:20:59.407Z,96225.25
2018-12-27T19:23:29.692Z,96223.14
2018-12-27T19:25:59.037Z,96227.66
2018-12-27T19:28:28.431Z,96219.96
2018-12-27T19:30:57.806Z,96221.01
2018-12-27T19:33:27.179Z,96220.77
2018-12-27T19:35:56.552Z,96215.18
2018-12-27T19:38:26.771Z,96223.69
2018-12-27T19:40:56.578Z,96222.64
2018-12-27T19:43:26.597Z,96227.17
2018-12-27T19:46:05.690Z,96221.06
2018-12-27T19:48:34.976Z,96217.89
2018-12-27T19:51:04.306Z,96207.48
2018-12-27T19:53:33.648Z,96211.22
2018-12-27T19:56:03.079Z,96212.80
2018-12-27T19:58:32.451Z,96211.70
2018-12-27T20:01:04.126Z,96215.47
2018-12-27T20:03:33.514Z,96211.20
2018-12-27T20:06:03.065Z,96213.34
2018-12-27T20:08:32.388Z,96216.28
2018-12-27T20:11:04.408Z,96211.48
2018-12-27T20:13:33.799Z,96211.49
2018-12-27T20:16:14.122Z,96211.19
2018-12-27T20:19:03.643Z,96210.65
2018-12-27T20:21:34.540Z,96213.60
2018-12-27T20:24:03.986Z,96205.34
2018-12-27T20:26:33.333Z,96213.85
2018-12-27T20:29:02.882Z,96211.73
2018-12-27T20:31:32.266Z,96206.13
2018-12-27T20:34:01.655Z,96198.37
2018-12-27T20:36:31.021Z,96204.78
2018-12-27T20:39:01.026Z,96206.34
2018-12-27T20:41:30.364Z,96205.80
2018-12-27T20:43:59.775Z,96206.08
2018-12-27T20:46:30.432Z,96205.25
2018-12-27T20:48:59.851Z,96193.03
2018-12-27T20:51:29.214Z,96199.17
2018-12-27T20:53:58.582Z,96192.51
2018-12-27T20:56:28.007Z,96195.15
2018-12-27T20:58:57.453Z,96191.70
2018-12-27T21:01:26.812Z,96188.23
2018-12-27T21:03:56.190Z,96190.91
2018-12-27T21:06:25.578Z,96196.22
2018-12-27T21:08:54.895Z,96197.27
2018-12-27T21:11:24.214Z,96190.58
2018-12-27T21:13:53.871Z,96187.41
2018-12-27T21:16:23.194Z,96180.48
2018-12-27T21:18:52.589Z,96187.95
2018-12-27T21:21:21.991Z,96180.23
2018-12-27T21:23:51.991Z,96183.93
2018-12-27T21:26:21.453Z,96183.67
2018-12-27T21:28:50.864Z,96173.03
2018-12-27T21:31:20.378Z,96168.20
2018-12-27T21:33:49.726Z,96176.95
2018-12-27T21:36:19.065Z,96178.55
2018-12-27T21:38:48.407Z,96170.82
2018-12-27T21:41:17.796Z,96164.44
2018-12-27T21:43:47.132Z,96165.23
2018-12-27T21:46:16.436Z,96161.47
2018-12-27T21:48:45.783Z,96155.61
2018-12-27T21:51:15.135Z,96156.42
2018-12-27T21:53:44.547Z,96158.56
2018-12-27T21:56:13.835Z,96155.34
2018-12-27T21:58:43.136Z,96160.97
2018-12-27T22:01:12.627Z,96147.11
2018-12-27T22:03:41.981Z,96151.93
2018-12-27T22:06:11.321Z,96152.16
2018-12-27T22:08:41.034Z,96144.74
2018-12-27T22:11:10.432Z,96143.45
2018-12-27T22:13:39.768Z,96136.55
2018-12-27T22:16:09.314Z,96140.55
2018-12-27T22:18:38.596Z,96137.88
2018-12-27T22:21:07.921Z,96138.41
2018-12-27T22:23:37.599Z,96137.60
2018-12-27T22:26:06.893Z,96132.55
2018-12-27T22:28:36.278Z,96134.13
2018-12-27T22:31:05.614Z,96137.59
2018-12-27T22:33:35.016Z,96130.66
2018-12-27T22:36:04.371Z,96128.28
2018-12-27T22:38:35.780Z,96125.33
2018-12-27T22:41:04.809Z,96131.48
2018-12-27T22:43:37.540Z,96118.43
2018-12-27T22:46:09.170Z,96117.11
2018-12-27T22:48:38.603Z,96115.27
2018-12-27T22:51:07.999Z,96119.50
2018-12-27T22:53:37.347Z,96116.84
2018-12-27T22:56:06.704Z,96108.67
2018-12-27T22:58:35.989Z,96110.27
2018-12-27T23:01:05.879Z,96109.17
2018-12-27T23:03:35.190Z,96112.52
2018-12-27T23:06:04.523Z,96115.64
2018-12-27T23:08:33.979Z,96113.20
2018-12-27T23:11:06.548Z,96114.76
2018-12-27T23:13:36.181Z,96121.67
2018-12-27T23:16:05.602Z,96120.08
2018-12-27T23:18:35.090Z,96124.09
2018-12-27T23:21:04.731Z,96120.36
2018-12-27T23:23:34.120Z,96109.44
2018-12-27T23:26:03.447Z,96117.94
2018-12-27T23:28:32.963Z,96121.37
2018-12-27T23:31:02.611Z,96123.24
2018-12-27T23:33:32.016Z,96105.38
2018-12-27T23:36:01.324Z,96103.53
2018-12-27T23:38:30.699Z,96108.05
2018-12-27T23:41:00.065Z,96111.52
2018-12-27T23:43:29.440Z,96110.70
2018-12-27T23:45:58.835Z,96114.19
2018-12-27T23:48:28.239Z,96113.66
2018-12-27T23:50:57.649Z,96107.28
2018-12-27T23:53:27.007Z,96109.12
2018-12-27T23:55:56.326Z,96102.22
2018-12-27T23:58:25.656Z,96105.95
